createdAt,value
2019-05-05T00:00:48.796Z,2.69
2019-05-05T00:01:48.783Z,2.70
2019-05-05T00:02:48.781Z,2.73
2019-05-05T00:03:48.764Z,2.76
2019-05-05T00:04:48.752Z,2.71
2019-05-05T00:05:48.741Z,2.71
2019-05-05T00:06:48.732Z,2.64
2019-05-05T00:07:48.753Z,2.70
2019-05-05T00:08:48.708Z,2.74
2019-05-05T00:09:48.703Z,2.69
2019-05-05T00:10:48.685Z,2.63
2019-05-05T00:11:48.675Z,2.67
2019-05-05T00:12:48.667Z,2.67
2019-05-05T00:13:48.665Z,2.66
2019-05-05T00:14:48.643Z,2.59
2019-05-05T00:15:48.632Z,2.59
2019-05-05T00:16:48.620Z,2.59
2019-05-05T00:17:48.616Z,2.52
2019-05-05T00:18:48.607Z,2.48
2019-05-05T00:19:48.590Z,2.45
2019-05-05T00:20:48.577Z,2.31
2019-05-05T00:21:48.568Z,2.38
2019-05-05T00:22:48.560Z,2.33
2019-05-05T00:23:48.553Z,2.20
2019-05-05T00:24:48.534Z,2.16
2019-05-05T00:25:48.527Z,2.23
2019-05-05T00:26:48.512Z,2.27
2019-05-05T00:27:48.502Z,2.06
2019-05-05T00:28:48.505Z,2.13
2019-05-05T00:29:48.480Z,2.08
2019-05-05T00:30:48.470Z,2.08
2019-05-05T00:31:48.458Z,2.09
2019-05-05T00:32:48.448Z,2.12
2019-05-05T00:33:48.450Z,2.08
2019-05-05T00:34:48.425Z,1.91
2019-05-05T00:35:48.421Z,2.04
2019-05-05T00:36:48.403Z,1.97
2019-05-05T00:37:48.394Z,1.97
2019-05-05T00:38:48.391Z,1.90
2019-05-05T00:39:48.371Z,1.90
2019-05-05T00:40:48.361Z,1.89
2019-05-05T00:41:48.354Z,1.89
2019-05-05T00:42:48.340Z,1.79
2019-05-05T00:43:48.337Z,1.82
2019-05-05T00:44:48.318Z,1.80
2019-05-05T00:45:48.307Z,1.83
2019-05-05T00:46:48.300Z,1.78
2019-05-05T00:47:48.285Z,1.78
2019-05-05T00:48:48.288Z,1.75
2019-05-05T00:49:49.466Z,1.78
2019-05-05T00:50:48.252Z,1.89
2019-05-05T00:51:48.252Z,1.75
2019-05-05T00:52:48.232Z,1.73
2019-05-05T00:53:48.232Z,1.78
2019-05-05T00:54:48.209Z,1.73
2019-05-05T00:55:48.199Z,1.80
2019-05-05T00:56:48.187Z,1.79
2019-05-05T00:57:48.177Z,1.78
2019-05-05T00:58:48.205Z,1.71
2019-05-05T00:59:48.155Z,1.65
2019-05-05T01:00:48.146Z,1.65
2019-05-05T01:01:48.134Z,1.55
2019-05-05T01:02:48.123Z,1.62
2019-05-05T01:03:48.112Z,1.71
2019-05-05T01:04:48.118Z,1.57
2019-05-05T01:05:48.092Z,1.61
2019-05-05T01:06:48.081Z,1.71
2019-05-05T01:07:48.071Z,1.57
2019-05-05T01:08:48.061Z,1.61
2019-05-05T01:09:48.063Z,1.60
2019-05-05T01:10:48.043Z,1.61
2019-05-05T01:11:48.031Z,1.61
2019-05-05T01:12:48.018Z,1.58
2019-05-05T01:13:48.008Z,1.50
2019-05-05T01:14:48.006Z,1.46
2019-05-05T01:15:47.988Z,1.44
2019-05-05T01:16:47.979Z,1.50
2019-05-05T01:17:47.968Z,1.42
2019-05-05T01:18:47.956Z,1.51
2019-05-05T01:20:00.252Z,1.52
2019-05-05T01:20:48.934Z,1.37
2019-05-05T01:21:47.925Z,1.51
2019-05-05T01:22:47.917Z,1.47
2019-05-05T01:23:47.906Z,1.51
2019-05-05T01:24:47.932Z,1.60
2019-05-05T01:25:48.768Z,1.58
2019-05-05T01:26:47.874Z,1.64
2019-05-05T01:27:47.862Z,1.64
2019-05-05T01:28:47.855Z,1.68
2019-05-05T01:29:47.845Z,1.79
2019-05-05T01:30:47.843Z,1.76
2019-05-05T01:31:47.822Z,1.68
2019-05-05T01:32:47.813Z,1.71
2019-05-05T01:33:47.801Z,1.62
2019-05-05T01:34:47.794Z,1.58
2019-05-05T01:35:47.787Z,1.55
2019-05-05T01:36:47.767Z,1.47
2019-05-05T01:37:47.757Z,1.47
2019-05-05T01:38:47.748Z,1.50
2019-05-05T01:39:47.739Z,1.46
2019-05-05T01:40:47.765Z,1.44
2019-05-05T01:41:47.716Z,1.39
2019-05-05T01:42:47.708Z,1.40
2019-05-05T01:43:47.696Z,1.34
2019-05-05T01:44:47.688Z,1.25
2019-05-05T01:45:47.673Z,1.29
2019-05-05T01:46:47.675Z,1.29
2019-05-05T01:47:47.650Z,1.22
2019-05-05T01:48:47.643Z,1.25
2019-05-05T01:49:47.630Z,1.22
2019-05-05T01:50:47.626Z,1.22
2019-05-05T01:51:47.618Z,1.19
2019-05-05T01:52:47.599Z,1.19
2019-05-05T01:53:47.590Z,1.14
2019-05-05T01:54:47.577Z,1.24
2019-05-05T01:55:47.567Z,1.12
2019-05-05T01:56:47.566Z,1.12
2019-05-05T01:57:47.546Z,1.06
2019-05-05T01:58:47.535Z,1.18
2019-05-05T01:59:47.526Z,1.07
2019-05-05T02:00:47.516Z,1.07
2019-05-05T02:01:47.514Z,1.06
2019-05-05T02:02:47.495Z,1.07
2019-05-05T02:03:47.483Z,1.14
2019-05-05T02:04:47.475Z,1.04
2019-05-05T02:05:47.464Z,1.03
2019-05-05T02:06:47.462Z,1.04
2019-05-05T02:07:47.441Z,1.12
2019-05-05T02:08:47.431Z,1.03
2019-05-05T02:09:47.420Z,1.03
2019-05-05T02:10:47.409Z,1.04
2019-05-05T02:11:47.422Z,1.04
2019-05-05T02:12:47.389Z,1.07
2019-05-05T02:13:47.377Z,1.07
2019-05-05T02:14:47.368Z,1.04
2019-05-05T02:15:47.361Z,1.00
2019-05-05T02:16:47.351Z,1.03
2019-05-05T02:17:47.343Z,1.01
2019-05-05T02:18:47.325Z,1.03
2019-05-05T02:19:47.314Z,1.07
2019-05-05T02:20:47.303Z,1.01
2019-05-05T02:21:47.296Z,1.04
2019-05-05T02:22:47.291Z,1.00
2019-05-05T02:23:47.271Z,1.06
2019-05-05T02:24:47.260Z,1.00
2019-05-05T02:25:47.251Z,0.98
2019-05-05T02:26:47.242Z,0.98
2019-05-05T02:27:47.237Z,0.96
2019-05-05T02:28:47.218Z,0.98
2019-05-05T02:29:47.209Z,0.97
2019-05-05T02:30:47.204Z,0.94
2019-05-05T02:31:47.206Z,0.98
2019-05-05T02:32:47.185Z,0.92
2019-05-05T02:33:47.169Z,0.96
2019-05-05T02:34:47.166Z,0.90
2019-05-05T02:35:47.148Z,0.89
2019-05-05T02:36:47.136Z,0.86
2019-05-05T02:37:47.145Z,0.86
2019-05-05T02:38:47.125Z,0.83
2019-05-05T02:39:58.056Z,0.85
2019-05-05T02:40:48.092Z,0.78
2019-05-05T02:41:47.084Z,0.67
2019-05-05T02:42:47.083Z,0.76
2019-05-05T02:43:47.066Z,0.76
2019-05-05T02:44:47.053Z,0.75
2019-05-05T02:45:47.042Z,0.70
2019-05-05T02:46:47.030Z,0.76
2019-05-05T02:47:47.035Z,0.64
2019-05-05T02:48:47.011Z,0.75
2019-05-05T02:49:47.004Z,0.62
2019-05-05T02:50:55.680Z,0.67
2019-05-05T02:51:47.980Z,0.72
2019-05-05T02:52:46.999Z,0.76
2019-05-05T02:53:46.956Z,0.67
2019-05-05T02:54:46.946Z,0.65
2019-05-05T02:55:46.936Z,0.71
2019-05-05T02:56:46.927Z,0.70
2019-05-05T02:57:46.918Z,0.70
2019-05-05T02:58:46.913Z,0.75
2019-05-05T02:59:46.894Z,0.75
2019-05-05T03:00:46.884Z,0.78
2019-05-05T03:01:46.875Z,0.79
2019-05-05T03:02:46.863Z,0.72
2019-05-05T03:03:46.866Z,0.78
2019-05-05T03:04:46.843Z,0.85
2019-05-05T03:05:46.834Z,0.79
2019-05-05T03:06:46.823Z,0.79
2019-05-05T03:07:46.811Z,0.75
2019-05-05T03:08:46.812Z,0.82
2019-05-05T03:09:46.791Z,0.79
2019-05-05T03:10:46.781Z,0.75
2019-05-05T03:11:46.773Z,0.78
2019-05-05T03:12:46.761Z,0.82
2019-05-05T03:13:46.760Z,0.76
2019-05-05T03:14:46.742Z,0.79
2019-05-05T03:15:46.732Z,0.82
2019-05-05T03:16:46.719Z,0.75
2019-05-05T03:17:46.708Z,0.79
2019-05-05T03:18:46.709Z,0.80
2019-05-05T03:19:46.692Z,0.82
2019-05-05T03:20:46.677Z,0.75
2019-05-05T03:21:46.668Z,0.67
2019-05-05T03:22:46.657Z,0.80
2019-05-05T03:23:46.655Z,0.72
2019-05-05T03:24:46.636Z,0.71
2019-05-05T03:25:46.627Z,0.72
2019-05-05T03:26:46.615Z,0.79
2019-05-05T03:27:46.605Z,0.75
2019-05-05T03:28:46.604Z,0.67
2019-05-05T03:29:46.585Z,0.71
2019-05-05T03:30:46.575Z,0.68
2019-05-05T03:31:46.564Z,0.76
2019-05-05T03:32:46.556Z,0.68
2019-05-05T03:33:46.560Z,0.79
2019-05-05T03:34:46.540Z,0.78
2019-05-05T03:35:46.526Z,0.82
2019-05-05T03:36:46.511Z,0.79
2019-05-05T03:37:46.505Z,0.76
2019-05-05T03:38:46.543Z,0.86
2019-05-05T03:39:46.482Z,0.92
2019-05-05T03:40:46.470Z,0.88
2019-05-05T03:41:46.461Z,0.86
2019-05-05T03:42:46.452Z,0.96
2019-05-05T03:43:46.440Z,0.90
2019-05-05T03:44:46.438Z,0.89
2019-05-05T03:45:46.418Z,0.96
2019-05-05T03:46:46.409Z,0.92
2019-05-05T03:47:46.398Z,0.98
2019-05-05T03:48:46.387Z,0.97
2019-05-05T03:49:46.394Z,1.10
2019-05-05T03:50:46.367Z,1.04
2019-05-05T03:51:46.358Z,1.26
2019-05-05T03:52:46.346Z,1.58
2019-05-05T03:53:46.336Z,1.73
2019-05-05T03:54:46.334Z,1.90
2019-05-05T03:55:46.316Z,1.83
2019-05-05T03:56:46.307Z,1.80
2019-05-05T03:57:46.292Z,1.78
2019-05-05T03:58:46.283Z,1.62
2019-05-05T03:59:46.279Z,1.65
2019-05-05T04:00:46.261Z,1.78
2019-05-05T04:01:46.252Z,1.78
2019-05-05T04:02:46.238Z,2.08
2019-05-05T04:03:46.229Z,2.15
2019-05-05T04:04:46.228Z,2.37
2019-05-05T04:05:46.205Z,2.94
2019-05-05T04:06:46.199Z,3.62
2019-05-05T04:07:46.184Z,3.65
2019-05-05T04:08:46.174Z,3.60
2019-05-05T04:09:46.180Z,3.30
2019-05-05T04:10:46.157Z,2.97
2019-05-05T04:11:46.143Z,2.74
2019-05-05T04:12:46.134Z,2.55
2019-05-05T04:13:46.121Z,2.64
2019-05-05T04:14:46.127Z,2.77
2019-05-05T04:15:46.102Z,2.92
2019-05-05T04:16:46.091Z,2.76
2019-05-05T04:17:46.079Z,2.56
2019-05-05T04:18:46.071Z,2.46
2019-05-05T04:19:46.069Z,2.33
2019-05-05T04:20:46.049Z,2.64
2019-05-05T04:21:46.037Z,2.66
2019-05-05T04:22:46.026Z,2.56
2019-05-05T04:23:46.017Z,2.49
2019-05-05T04:24:46.014Z,2.38
2019-05-05T04:25:45.997Z,2.31
2019-05-05T04:26:45.984Z,2.16
2019-05-05T04:27:45.973Z,2.17
2019-05-05T04:28:45.964Z,2.22
2019-05-05T04:29:45.965Z,2.31
2019-05-05T04:30:45.944Z,2.22
2019-05-05T04:31:45.933Z,2.20
2019-05-05T04:32:45.926Z,2.27
2019-05-05T04:33:45.911Z,2.26
2019-05-05T04:34:45.912Z,2.35
2019-05-05T04:35:45.891Z,2.38
2019-05-05T04:36:45.879Z,2.45
2019-05-05T04:37:45.870Z,2.44
2019-05-05T04:38:45.859Z,2.45
2019-05-05T04:39:45.898Z,2.46
2019-05-05T04:40:45.837Z,2.61
2019-05-05T04:41:45.826Z,3.00
2019-05-05T04:42:45.816Z,4.01
2019-05-05T04:43:45.808Z,5.14
2019-05-05T04:44:45.795Z,6.18
2019-05-05T04:45:45.793Z,6.98
2019-05-05T04:46:45.773Z,7.85
2019-05-05T04:47:45.765Z,8.53
2019-05-05T04:48:45.754Z,9.09
2019-05-05T04:49:45.741Z,9.61
2019-05-05T04:50:45.739Z,10.21
2019-05-05T04:51:49.964Z,10.40
2019-05-05T04:52:45.708Z,10.92
2019-05-05T04:53:45.701Z,11.14
2019-05-05T04:54:45.688Z,11.57
2019-05-05T04:55:45.685Z,11.96
2019-05-05T04:56:45.665Z,12.02
2019-05-05T04:57:45.655Z,12.34
2019-05-05T04:58:45.644Z,12.64
2019-05-05T04:59:45.633Z,12.88
2019-05-05T05:00:45.632Z,13.11
2019-05-05T05:01:45.613Z,13.36
2019-05-05T05:02:45.601Z,13.36
2019-05-05T05:03:45.590Z,13.36
2019-05-05T05:04:45.580Z,13.67
2019-05-05T05:05:45.578Z,13.87
2019-05-05T05:06:45.564Z,14.19
2019-05-05T05:07:45.548Z,14.43
2019-05-05T05:08:45.538Z,14.56
2019-05-05T05:09:45.528Z,14.69
2019-05-05T05:10:45.530Z,14.74
2019-05-05T05:11:45.506Z,14.80
2019-05-05T05:12:45.496Z,15.01
2019-05-05T05:13:45.486Z,15.12
2019-05-05T05:14:45.473Z,15.35
2019-05-05T05:15:45.503Z,15.54
2019-05-05T05:16:45.454Z,15.70
2019-05-05T05:17:45.443Z,15.75
2019-05-05T05:18:45.437Z,15.97
2019-05-05T05:19:45.422Z,15.93
2019-05-05T05:20:45.412Z,15.05
2019-05-05T05:21:58.255Z,14.80
2019-05-05T05:22:46.397Z,14.95
2019-05-05T05:23:45.383Z,14.78
2019-05-05T05:24:45.373Z,14.49
2019-05-05T05:25:45.361Z,14.32
2019-05-05T05:26:45.360Z,14.21
2019-05-05T05:27:45.339Z,14.17
2019-05-05T05:28:45.333Z,13.84
2019-05-05T05:29:45.319Z,14.24
2019-05-05T05:30:45.310Z,14.47
2019-05-05T05:31:45.308Z,15.12
2019-05-05T05:32:45.295Z,15.41
2019-05-05T05:33:45.281Z,15.60
2019-05-05T05:34:45.271Z,15.54
2019-05-05T05:35:45.262Z,15.88
2019-05-05T05:36:45.264Z,16.14
2019-05-05T05:37:45.240Z,16.44
2019-05-05T05:38:45.229Z,16.86
2019-05-05T05:39:45.221Z,17.06
2019-05-05T05:40:45.209Z,17.35
2019-05-05T05:41:45.211Z,17.36
2019-05-05T05:42:45.193Z,17.35
2019-05-05T05:43:45.183Z,17.74
2019-05-05T05:44:45.170Z,17.89
2019-05-05T05:45:45.161Z,18.17
2019-05-05T05:46:45.160Z,18.24
2019-05-05T05:47:45.141Z,18.37
2019-05-05T05:48:45.794Z,18.36
2019-05-05T05:49:45.123Z,18.29
2019-05-05T05:50:45.112Z,18.27
2019-05-05T05:51:45.136Z,18.57
2019-05-05T05:52:45.092Z,18.86
2019-05-05T05:53:45.082Z,18.91
2019-05-05T05:54:45.072Z,18.92
2019-05-05T05:55:45.065Z,18.95
2019-05-05T05:56:45.055Z,19.28
2019-05-05T05:57:45.055Z,19.13
2019-05-05T05:58:45.036Z,19.05
2019-05-05T05:59:45.027Z,18.86
2019-05-05T06:00:45.024Z,19.08
2019-05-05T06:01:45.010Z,19.02
2019-05-05T06:02:45.006Z,19.24
2019-05-05T06:03:44.992Z,19.43
2019-05-05T06:04:44.980Z,19.70
2019-05-05T06:05:44.981Z,19.84
2019-05-05T06:06:44.961Z,19.58
2019-05-05T06:07:44.958Z,19.23
2019-05-05T06:08:44.940Z,19.42
2019-05-05T06:09:44.933Z,19.35
2019-05-05T06:10:44.922Z,19.17
2019-05-05T06:11:44.912Z,18.92
2019-05-05T06:12:45.105Z,18.98
2019-05-05T06:13:47.477Z,18.80
2019-05-05T06:14:44.885Z,19.20
2019-05-05T06:15:44.874Z,19.47
2019-05-05T06:16:44.863Z,19.70
2019-05-05T06:17:44.862Z,19.36
2019-05-05T06:18:44.850Z,19.39
2019-05-05T06:19:44.835Z,19.40
2019-05-05T06:20:44.826Z,19.21
2019-05-05T06:21:44.815Z,18.99
2019-05-05T06:22:44.817Z,18.97
2019-05-05T06:23:44.799Z,19.14
2019-05-05T06:24:44.788Z,19.57
2019-05-05T06:25:44.974Z,19.86
2019-05-05T06:26:44.773Z,19.65
2019-05-05T06:27:44.769Z,19.83
2019-05-05T06:28:44.916Z,19.76
2019-05-05T06:29:44.743Z,20.02
2019-05-05T06:30:44.733Z,20.20
2019-05-05T06:31:44.905Z,19.91
2019-05-05T06:32:45.726Z,19.61
2019-05-05T06:33:44.703Z,19.60
2019-05-05T06:34:44.694Z,19.73
2019-05-05T06:35:44.684Z,19.28
2019-05-05T06:36:44.675Z,18.86
2019-05-05T06:37:46.692Z,18.64
2019-05-05T06:38:44.656Z,18.61
2019-05-05T06:39:44.647Z,19.08
2019-05-05T06:40:44.637Z,19.38
2019-05-05T06:41:44.629Z,19.60
2019-05-05T06:42:44.618Z,19.90
2019-05-05T06:43:44.620Z,20.15
2019-05-05T06:44:44.602Z,20.43
2019-05-05T06:45:44.593Z,20.50
2019-05-05T06:46:44.665Z,20.64
2019-05-05T06:47:44.611Z,20.53
2019-05-05T06:48:44.572Z,20.49
2019-05-05T06:49:44.552Z,20.28
2019-05-05T06:50:44.543Z,20.34
2019-05-05T06:51:44.533Z,20.51
2019-05-05T06:52:47.052Z,20.58
2019-05-05T06:53:44.524Z,20.56
2019-05-05T06:54:44.503Z,20.59
2019-05-05T06:55:44.547Z,20.68
2019-05-05T06:56:44.574Z,20.56
2019-05-05T06:57:44.530Z,20.51
2019-05-05T06:58:44.953Z,20.08
2019-05-05T06:59:44.454Z,19.18
2019-05-05T07:00:44.443Z,19.33
2019-05-05T07:01:44.435Z,19.35
2019-05-05T07:02:44.561Z,19.55
2019-05-05T07:03:44.425Z,19.79
2019-05-05T07:04:44.684Z,20.09
2019-05-05T07:05:44.394Z,20.24
2019-05-05T07:06:53.848Z,20.53
2019-05-05T07:07:45.374Z,20.56
2019-05-05T07:08:44.373Z,20.38
2019-05-05T07:09:44.465Z,20.24
2019-05-05T07:10:44.574Z,20.15
2019-05-05T07:11:44.332Z,19.97
2019-05-05T07:12:44.321Z,19.87
2019-05-05T07:13:44.467Z,19.57
2019-05-05T07:14:44.671Z,19.39
2019-05-05T07:15:44.293Z,19.38
2019-05-05T07:16:44.280Z,19.36
2019-05-05T07:17:44.391Z,19.25
2019-05-05T07:18:44.706Z,19.25
2019-05-05T07:19:44.984Z,19.20
2019-05-05T07:20:44.239Z,19.10
2019-05-05T07:21:44.228Z,18.99
2019-05-05T07:22:58.439Z,18.87
2019-05-05T07:23:45.216Z,18.82
2019-05-05T07:24:44.198Z,18.67
2019-05-05T07:25:45.971Z,18.72
2019-05-05T07:26:44.742Z,18.61
2019-05-05T07:27:44.391Z,18.24
2019-05-05T07:28:44.849Z,17.94
2019-05-05T07:29:44.146Z,17.78
2019-05-05T07:30:44.352Z,17.55
2019-05-05T07:31:44.122Z,17.46
2019-05-05T07:32:44.360Z,17.44
2019-05-05T07:33:44.111Z,17.30
2019-05-05T07:34:44.106Z,17.22
2019-05-05T07:35:55.500Z,17.28
2019-05-05T07:36:45.071Z,16.77
2019-05-05T07:37:44.059Z,16.41
2019-05-05T07:38:44.322Z,16.31
2019-05-05T07:39:44.636Z,16.00
2019-05-05T07:40:44.048Z,15.85
2019-05-05T07:41:44.790Z,15.70
2019-05-05T07:42:44.154Z,15.49
2019-05-05T07:43:43.996Z,15.39
2019-05-05T07:44:44.174Z,15.41
2019-05-05T07:45:44.864Z,15.54
2019-05-05T07:46:44.117Z,15.33
2019-05-05T07:47:47.185Z,15.20
2019-05-05T07:48:44.305Z,15.05
2019-05-05T07:49:44.197Z,15.05
2019-05-05T07:50:58.166Z,15.13
2019-05-05T07:51:44.935Z,14.88
2019-05-05T07:52:43.971Z,14.72
2019-05-05T07:53:44.397Z,14.60
2019-05-05T07:54:43.885Z,14.50
2019-05-05T07:55:43.868Z,14.44
2019-05-05T07:56:44.498Z,14.38
2019-05-05T07:57:43.844Z,14.35
2019-05-05T07:58:44.035Z,14.50
2019-05-05T07:59:44.998Z,14.43
2019-05-05T08:00:43.843Z,14.32
2019-05-05T08:01:46.508Z,14.21
2019-05-05T08:02:44.010Z,14.29
2019-05-05T08:03:44.550Z,14.24
2019-05-05T08:04:43.879Z,14.19
2019-05-05T08:05:44.303Z,14.14
2019-05-05T08:06:44.541Z,14.04
2019-05-05T08:07:44.653Z,13.99
2019-05-05T08:08:44.457Z,13.98
2019-05-05T08:09:44.493Z,14.01
2019-05-05T08:10:43.919Z,14.14
2019-05-05T08:11:43.723Z,14.24
2019-05-05T08:12:43.811Z,14.32
2019-05-05T08:13:44.291Z,14.31
2019-05-05T08:14:44.401Z,14.24
2019-05-05T08:15:56.308Z,14.19
2019-05-05T08:16:44.639Z,14.19
2019-05-05T08:17:44.765Z,14.14
2019-05-05T08:18:43.890Z,14.07
2019-05-05T08:19:43.980Z,14.09
2019-05-05T08:20:44.349Z,14.14
2019-05-05T08:21:43.817Z,14.10
2019-05-05T08:22:44.351Z,14.21
2019-05-05T08:23:44.743Z,14.25
2019-05-05T08:24:44.027Z,14.24
2019-05-05T08:25:45.373Z,14.04
2019-05-05T08:26:44.218Z,13.99
2019-05-05T08:27:44.673Z,13.84
2019-05-05T08:28:43.534Z,13.69
2019-05-05T08:29:43.866Z,13.51
2019-05-05T08:30:44.162Z,13.51
2019-05-05T08:31:44.287Z,13.46
2019-05-05T08:32:43.711Z,13.25
2019-05-05T08:33:44.194Z,13.06
2019-05-05T08:34:56.621Z,12.67
2019-05-05T08:35:44.964Z,12.60
2019-05-05T08:36:44.645Z,12.60
2019-05-05T08:37:43.639Z,12.63
2019-05-05T08:38:44.132Z,12.67
2019-05-05T08:39:44.700Z,12.85
2019-05-05T08:40:43.994Z,12.95
2019-05-05T08:41:45.401Z,13.14
2019-05-05T08:42:44.552Z,13.36
2019-05-05T08:43:44.067Z,13.58
2019-05-05T08:44:44.719Z,13.69
2019-05-05T08:45:44.401Z,13.87
2019-05-05T08:46:44.606Z,13.88
2019-05-05T08:47:43.636Z,14.01
2019-05-05T08:48:44.706Z,14.19
2019-05-05T08:49:44.262Z,14.24
2019-05-05T08:50:43.905Z,14.17
2019-05-05T08:51:44.306Z,14.20
2019-05-05T08:52:44.455Z,14.17
2019-05-05T08:53:47.878Z,14.24
2019-05-05T08:54:44.762Z,14.43
2019-05-05T08:55:44.330Z,14.52
2019-05-05T08:56:44.732Z,14.54
2019-05-05T08:57:44.689Z,14.53
2019-05-05T08:58:43.784Z,14.49
2019-05-05T08:59:43.967Z,14.53
2019-05-05T09:00:44.369Z,14.39
2019-05-05T09:01:44.893Z,14.37
2019-05-05T09:02:43.767Z,14.49
2019-05-05T09:03:44.320Z,14.54
2019-05-05T09:04:44.708Z,14.25
2019-05-05T09:05:43.860Z,14.07
2019-05-05T09:06:43.771Z,14.07
2019-05-05T09:07:44.157Z,14.07
2019-05-05T09:08:44.177Z,14.21
2019-05-05T09:09:44.173Z,14.52
2019-05-05T09:10:44.775Z,14.75
2019-05-05T09:11:43.817Z,14.75
2019-05-05T09:12:43.681Z,14.78
2019-05-05T09:13:44.705Z,14.80
2019-05-05T09:14:44.915Z,14.84
2019-05-05T09:15:44.298Z,14.91
2019-05-05T09:16:44.778Z,15.05
2019-05-05T09:17:44.014Z,15.21
2019-05-05T09:18:44.220Z,15.26
2019-05-05T09:19:44.896Z,15.45
2019-05-05T09:20:44.579Z,15.42
2019-05-05T09:21:44.741Z,15.31
2019-05-05T09:22:44.589Z,15.23
2019-05-05T09:23:58.169Z,15.19
2019-05-05T09:24:44.558Z,15.20
2019-05-05T09:25:44.640Z,15.21
2019-05-05T09:26:43.756Z,15.26
2019-05-05T09:27:44.260Z,15.51
2019-05-05T09:28:44.573Z,15.61
2019-05-05T09:29:43.932Z,15.31
2019-05-05T09:30:44.373Z,15.12
2019-05-05T09:31:44.941Z,14.81
2019-05-05T09:32:43.889Z,14.43
2019-05-05T09:33:44.243Z,14.06
2019-05-05T09:34:43.588Z,13.96
2019-05-05T09:35:43.711Z,13.80
2019-05-05T09:36:43.967Z,13.46
2019-05-05T09:37:44.343Z,13.36
2019-05-05T09:38:44.585Z,13.14
2019-05-05T09:39:43.663Z,12.84
2019-05-05T09:40:43.983Z,12.84
2019-05-05T09:41:44.587Z,12.71
2019-05-05T09:42:44.279Z,12.69
2019-05-05T09:43:44.567Z,12.69
2019-05-05T09:44:43.813Z,12.69
2019-05-05T09:45:44.169Z,12.74
2019-05-05T09:46:44.515Z,12.69
2019-05-05T09:47:44.865Z,12.79
2019-05-05T09:48:44.010Z,13.04
2019-05-05T09:49:44.602Z,13.37
2019-05-05T09:50:43.660Z,13.73
2019-05-05T09:51:43.981Z,13.94
2019-05-05T09:52:44.332Z,14.04
2019-05-05T09:53:44.624Z,14.24
2019-05-05T09:54:43.876Z,14.39
2019-05-05T09:55:44.341Z,14.49
2019-05-05T09:56:44.429Z,14.60
2019-05-05T09:57:43.819Z,14.74
2019-05-05T09:58:44.038Z,14.98
2019-05-05T09:59:44.101Z,15.06
2019-05-05T10:00:44.165Z,14.88
2019-05-05T10:01:44.486Z,14.64
2019-05-05T10:02:44.161Z,14.29
2019-05-05T10:03:44.230Z,13.94
2019-05-05T10:04:44.105Z,13.89
2019-05-05T10:05:42.468Z,13.76
2019-05-05T10:06:45.727Z,13.73
2019-05-05T10:07:44.034Z,13.76
2019-05-05T10:08:44.499Z,13.56
2019-05-05T10:09:43.770Z,13.37
2019-05-05T10:10:44.291Z,13.15
2019-05-05T10:11:44.813Z,13.09
2019-05-05T10:12:44.373Z,12.96
2019-05-05T10:13:44.261Z,12.92
2019-05-05T10:14:44.746Z,13.37
2019-05-05T10:15:44.309Z,13.58
2019-05-05T10:16:42.348Z,13.96
2019-05-05T10:17:42.344Z,14.21
2019-05-05T10:18:42.327Z,14.44
2019-05-05T10:19:44.022Z,14.46
2019-05-05T10:20:42.308Z,14.56
2019-05-05T10:21:44.205Z,14.37
2019-05-05T10:22:43.812Z,14.43
2019-05-05T10:23:43.598Z,14.69
2019-05-05T10:24:44.230Z,14.93
2019-05-05T10:25:44.538Z,15.12
2019-05-05T10:26:43.797Z,15.17
2019-05-05T10:27:47.000Z,15.30
2019-05-05T10:28:44.456Z,15.30
2019-05-05T10:29:44.100Z,15.26
2019-05-05T10:30:42.200Z,15.33
2019-05-05T10:31:43.701Z,15.21
2019-05-05T10:32:43.776Z,15.27
2019-05-05T10:33:42.176Z,15.20
2019-05-05T10:34:43.919Z,15.23
2019-05-05T10:35:43.745Z,15.30
2019-05-05T10:36:44.169Z,15.36
2019-05-05T10:37:43.891Z,15.46
2019-05-05T10:38:42.110Z,15.57
2019-05-05T10:39:43.896Z,15.85
2019-05-05T10:40:44.427Z,16.07
2019-05-05T10:41:44.058Z,16.00
2019-05-05T10:42:44.193Z,15.57
2019-05-05T10:43:43.723Z,15.23
2019-05-05T10:44:42.047Z,15.05
2019-05-05T10:45:43.911Z,14.80
2019-05-05T10:46:42.027Z,14.56
2019-05-05T10:47:43.989Z,14.56
2019-05-05T10:48:42.013Z,14.46
2019-05-05T10:49:43.992Z,14.34
2019-05-05T10:50:44.279Z,14.32
2019-05-05T10:51:43.835Z,14.38
2019-05-05T10:52:44.157Z,14.68
2019-05-05T10:53:43.830Z,14.91
2019-05-05T10:54:44.838Z,15.05
2019-05-05T10:55:41.932Z,15.43
2019-05-05T10:56:41.924Z,15.66
2019-05-05T10:57:43.607Z,15.78
2019-05-05T10:58:43.996Z,15.70
2019-05-05T10:59:43.530Z,15.41
2019-05-05T11:00:44.120Z,15.12
2019-05-05T11:01:41.875Z,14.67
2019-05-05T11:02:41.855Z,14.42
2019-05-05T11:03:41.858Z,14.32
2019-05-05T11:04:44.018Z,14.14
2019-05-05T11:05:41.825Z,13.94
2019-05-05T11:06:43.699Z,13.89
2019-05-05T11:07:41.802Z,13.71
2019-05-05T11:08:41.802Z,13.74
2019-05-05T11:09:41.783Z,13.87
2019-05-05T11:10:41.770Z,13.91
2019-05-05T11:11:43.755Z,13.98
2019-05-05T11:12:41.750Z,13.74
2019-05-05T11:13:45.013Z,13.65
2019-05-05T11:14:41.727Z,13.69
2019-05-05T11:15:43.982Z,13.67
2019-05-05T11:16:43.750Z,13.55
2019-05-05T11:17:43.807Z,13.56
2019-05-05T11:18:41.694Z,13.55
2019-05-05T11:19:41.673Z,13.59
2019-05-05T11:20:41.664Z,13.51
2019-05-05T11:21:43.576Z,13.33
2019-05-05T11:22:43.711Z,13.36
2019-05-05T11:23:41.636Z,13.15
2019-05-05T11:24:55.135Z,13.12
2019-05-05T11:25:44.219Z,13.17
2019-05-05T11:26:41.596Z,13.06
2019-05-05T11:27:43.852Z,13.04
2019-05-05T11:28:41.584Z,13.11
2019-05-05T11:29:43.689Z,13.12
2019-05-05T11:30:41.565Z,13.24
2019-05-05T11:31:41.541Z,13.24
2019-05-05T11:32:41.532Z,13.25
2019-05-05T11:33:43.589Z,13.24
2019-05-05T11:34:41.509Z,13.20
2019-05-05T11:35:41.497Z,13.27
2019-05-05T11:36:41.487Z,13.27
2019-05-05T11:37:43.731Z,13.43
2019-05-05T11:38:41.892Z,13.61
2019-05-05T11:39:41.455Z,13.58
2019-05-05T11:40:41.442Z,13.63
2019-05-05T11:41:41.431Z,13.46
2019-05-05T11:42:41.420Z,13.30
2019-05-05T11:43:41.586Z,13.30
2019-05-05T11:44:41.400Z,13.36
2019-05-05T11:45:41.387Z,13.37
2019-05-05T11:46:41.376Z,13.30
2019-05-05T11:47:41.365Z,13.51
2019-05-05T11:48:41.360Z,13.54
2019-05-05T11:49:41.353Z,13.36
2019-05-05T11:50:43.485Z,13.17
2019-05-05T11:51:43.598Z,12.74
2019-05-05T11:52:41.309Z,12.64
2019-05-05T11:53:41.299Z,12.67
2019-05-05T11:54:41.297Z,12.69
2019-05-05T11:55:41.276Z,12.64
2019-05-05T11:56:41.265Z,12.78
2019-05-05T11:57:41.254Z,12.92
2019-05-05T11:58:41.244Z,13.04
2019-05-05T11:59:41.242Z,13.14
2019-05-05T12:00:41.223Z,13.18
2019-05-05T12:01:41.210Z,13.24
2019-05-05T12:02:41.198Z,13.30
2019-05-05T12:03:41.188Z,13.33
2019-05-05T12:04:41.186Z,13.33
2019-05-05T12:05:41.167Z,13.32
2019-05-05T12:06:41.153Z,13.33
2019-05-05T12:07:41.143Z,13.37
2019-05-05T12:08:43.617Z,13.18
2019-05-05T12:09:41.129Z,13.14
2019-05-05T12:10:41.116Z,13.15
2019-05-05T12:11:41.098Z,12.96
2019-05-05T12:12:41.088Z,12.96
2019-05-05T12:13:41.080Z,12.95
2019-05-05T12:14:41.081Z,13.06
2019-05-05T12:15:41.060Z,12.96
2019-05-05T12:16:41.050Z,13.07
2019-05-05T12:17:41.036Z,13.07
2019-05-05T12:18:41.068Z,13.09
2019-05-05T12:19:41.024Z,13.09
2019-05-05T12:20:41.003Z,12.95
2019-05-05T12:21:40.993Z,12.95
2019-05-05T12:22:40.981Z,12.85
2019-05-05T12:23:40.970Z,12.85
2019-05-05T12:24:40.967Z,12.87
2019-05-05T12:25:40.949Z,12.78
2019-05-05T12:26:40.939Z,12.75
2019-05-05T12:27:40.932Z,12.75
2019-05-05T12:28:40.918Z,12.69
2019-05-05T12:29:40.914Z,12.69
2019-05-05T12:30:40.896Z,12.78
2019-05-05T12:31:40.886Z,12.88
2019-05-05T12:32:40.882Z,12.85
2019-05-05T12:33:40.868Z,12.85
2019-05-05T12:34:40.976Z,12.75
2019-05-05T12:35:40.847Z,12.78
2019-05-05T12:36:40.832Z,12.74
2019-05-05T12:37:40.827Z,12.88
2019-05-05T12:38:40.859Z,12.87
2019-05-05T12:39:40.931Z,12.82
2019-05-05T12:40:40.798Z,12.89
2019-05-05T12:41:40.788Z,12.82
2019-05-05T12:42:40.769Z,12.93
2019-05-05T12:43:40.758Z,12.69
2019-05-05T12:44:40.813Z,12.78
2019-05-05T12:45:40.749Z,12.77
2019-05-05T12:46:40.727Z,12.78
2019-05-05T12:47:40.760Z,12.77
2019-05-05T12:48:40.706Z,12.81
2019-05-05T12:49:40.699Z,12.77
2019-05-05T12:50:40.694Z,12.71
2019-05-05T12:51:40.722Z,12.66
2019-05-05T12:52:40.697Z,12.49
2019-05-05T12:53:40.705Z,12.45
2019-05-05T12:54:40.717Z,12.42
2019-05-05T12:55:41.889Z,12.42
2019-05-05T12:56:40.624Z,12.49
2019-05-05T12:57:40.612Z,12.62
2019-05-05T12:58:40.667Z,12.56
2019-05-05T12:59:40.591Z,12.59
2019-05-05T13:00:40.651Z,12.54
2019-05-05T13:01:40.571Z,12.59
2019-05-05T13:02:40.581Z,12.56